Impacts METAR Board
IDs:

KGYB - Giddings/Lee Cnty, TX, US

Updated at: 2300 UTC 29 May 2020
Potential Impact None Slight Moderate High
Time 29/11Z 29/12Z 29/13Z 29/14Z 29/15Z 29/16Z 29/17Z 29/18Z 29/19Z 29/20Z 29/21Z 29/22Z 29/23Z
Temp69 69 70 74 78 81 81 82 84 85 86 86 86
Dewpt66 66 66 66 66 65 65 65 63 64 63 62 60
Altim30.05 30.07 30.09 30.09 30.09 30.10 30.11 30.10 30.11 30.11 30.09 30.07 30.07
VIS10 10 10 10 10 10 10 10 10 10 10 10 10
CIG-- -- 50 -- -- -- -- -- -- -- -- -- --
CoverCLRCLRBKNCLRCLRCLRCLRSCTSCTSCTSCTSCTCLR
FltCatVFRVFRVFRVFRVFRVFRVFRVFRVFRVFRVFRVFRVFR
WX--------------------------
WDir36010020104030105060302030
WSpd3 3 0 6 9 7 7 8 8 10 6 7 4
WGst-- -- -- -- 14 -- -- -- -- -- -- -- --
Raw hourly METARs
KGYB 291055Z AUTO 36003KT 10SM CLR 21/19 A3005 RMK AO2 T02080189
KGYB 291155Z AUTO 01003KT 10SM CLR 21/19 A3007 RMK AO2 T02050189 10238 20205
KGYB 291255Z AUTO 00000KT 10SM SCT044 BKN050 21/19 A3009 RMK AO2 T02100190
KGYB 291355Z AUTO 02006KT 10SM CLR 24/19 A3009 RMK AO2 T02350187
KGYB 291455Z AUTO 01009G14KT 10SM CLR 26/19 A3009 RMK AO2 T02560189
KGYB 291555Z AUTO 04007KT 10SM CLR 27/18 A3010 RMK AO2 T02700181
KGYB 291655Z AUTO 03007KT 10SM CLR 27/18 A3011 RMK AO2 T02720183
KGYB 291755Z AUTO 01008KT 330V030 10SM SCT036 28/18 A3010 RMK AO2 T02780181 10281 20205
KGYB 291855Z AUTO 05008KT 10SM SCT040 29/17 A3011 RMK AO2 T02880173
KGYB 291955Z AUTO 06010KT 10SM SCT042 SCT048 30/18 A3011 RMK AO2 T02970179
KGYB 292055Z AUTO 03006KT 10SM SCT050 30/17 A3009 RMK AO2 T03000174
KGYB 292155Z AUTO 02007KT 10SM SCT055 30/17 A3007 RMK AO2 T03020167
KGYB 292255Z AUTO 03004KT 10SM CLR 30/16 A3007 RMK AO2 T03000158